Time;durP1;ratioP1;P1;durP2;ratioP2;P2;SDS_P1;SDS_P2;PMS_P1;PMS_P2;Temp;Humidity;BMP_temperature;BMP_pressure;BME280_temperature;BME280_humidity;BME280_pressure;Samples;Min_cycle;Max_cycle;Signal;HPM_P1;HPM_P2
2022/12/12 00:01:31;;;;;;;28.10;18.10;;;5.80;99.90;;;;;;5032841;28;20232;-66
2022/12/12 00:03:58;;;;;;;30.67;17.77;;;5.80;99.90;;;;;;5031536;28;20302;-66
2022/12/12 00:06:24;;;;;;;29.42;18.25;;;5.90;99.90;;;;;;5033615;28;20171;-66
2022/12/12 00:08:51;;;;;;;25.55;17.30;;;5.80;99.90;;;;;;5033356;28;20266;-74
2022/12/12 00:11:17;;;;;;;29.25;18.15;;;5.80;99.90;;;;;;5031732;28;20179;-66
2022/12/12 00:13:43;;;;;;;24.73;17.50;;;5.90;99.90;;;;;;5033340;28;20213;-66
2022/12/12 00:16:10;;;;;;;30.40;17.40;;;5.90;99.90;;;;;;5031606;28;20182;-66
2022/12/12 00:18:36;;;;;;;26.83;18.05;;;5.80;99.90;;;;;;5033000;28;20623;-66
2022/12/12 00:21:04;;;;;;;29.75;18.00;;;5.80;99.90;;;;;;5032526;28;20166;-66
2022/12/12 00:23:29;;;;;;;28.98;17.30;;;5.80;99.90;;;;;;5033007;28;20710;-66
2022/12/12 00:25:58;;;;;;;25.53;17.50;;;5.80;99.90;;;;;;5032430;28;20182;-67
2022/12/12 00:28:24;;;;;;;27.38;18.30;;;5.90;99.90;;;;;;5032458;28;20191;-66
2022/12/12 00:30:50;;;;;;;25.27;17.10;;;5.80;99.90;;;;;;5032488;28;20186;-71
2022/12/12 00:33:16;;;;;;;29.13;17.70;;;5.90;99.90;;;;;;5029839;28;20604;-66
2022/12/12 00:35:42;;;;;;;29.63;19.60;;;5.90;99.90;;;;;;5032541;28;20492;-70
2022/12/12 00:38:08;;;;;;;26.83;18.30;;;5.90;99.90;;;;;;5031854;28;20516;-66
2022/12/12 00:40:34;;;;;;;28.55;19.17;;;5.90;99.90;;;;;;5032927;28;20183;-66
2022/12/12 00:43:00;;;;;;;27.85;18.25;;;5.90;99.90;;;;;;5032149;28;20182;-66
2022/12/12 00:45:26;;;;;;;31.17;17.73;;;6.00;99.90;;;;;;5032661;28;20180;-66
2022/12/12 00:47:51;;;;;;;27.87;18.17;;;5.90;99.90;;;;;;5032872;28;20236;-72
2022/12/12 00:50:17;;;;;;;28.97;17.87;;;5.90;99.90;;;;;;5031196;28;20546;-66
2022/12/12 00:52:43;;;;;;;29.47;19.13;;;5.90;99.90;;;;;;5031697;28;20210;-66
2022/12/12 00:55:11;;;;;;;28.40;18.87;;;5.90;99.90;;;;;;5031612;28;20225;-66
2022/12/12 00:57:37;;;;;;;29.45;18.60;;;5.90;99.90;;;;;;5032743;28;20199;-66
2022/12/12 01:00:05;;;;;;;30.47;19.67;;;5.90;99.90;;;;;;5031880;28;20201;-66
2022/12/12 01:02:30;;;;;;;30.98;18.23;;;5.90;99.90;;;;;;5032542;28;20492;-66
2022/12/12 01:04:56;;;;;;;27.20;17.83;;;5.90;99.90;;;;;;5031983;28;20214;-74
2022/12/12 01:07:22;;;;;;;27.70;18.83;;;6.00;99.90;;;;;;5032444;28;20623;-66
2022/12/12 01:09:48;;;;;;;29.23;18.85;;;5.90;99.90;;;;;;5029695;28;20174;-66
2022/12/12 01:12:13;;;;;;;29.30;18.73;;;5.90;99.90;;;;;;5029882;28;20288;-66
2022/12/12 01:14:39;;;;;;;27.30;17.97;;;5.90;99.90;;;;;;5031537;28;20190;-66
2022/12/12 01:17:08;;;;;;;28.38;18.08;;;5.90;99.90;;;;;;5031501;28;20174;-66
2022/12/12 01:19:36;;;;;;;28.20;18.42;;;5.90;99.90;;;;;;5017235;28;20179;-66
2022/12/12 01:22:02;;;;;;;29.90;17.13;;;5.90;99.90;;;;;;5011606;28;20236;-66
2022/12/12 01:24:28;;;;;;;24.87;17.33;;;5.90;99.90;;;;;;5024373;28;20198;-66
2022/12/12 01:26:53;;;;;;;27.63;18.10;;;5.90;99.90;;;;;;5032263;28;20181;-66
2022/12/12 01:29:19;;;;;;;28.50;17.33;;;5.90;99.90;;;;;;5031511;28;20269;-66
2022/12/12 01:31:45;;;;;;;23.90;16.03;;;5.90;99.90;;;;;;5032206;28;20197;-66
2022/12/12 01:34:11;;;;;;;28.37;16.43;;;5.90;99.90;;;;;;5029394;28;20306;-66
2022/12/12 01:36:36;;;;;;;24.23;16.70;;;5.90;99.50;;;;;;5032209;28;20220;-66
2022/12/12 01:39:04;;;;;;;25.07;16.20;;;5.90;99.20;;;;;;5031337;28;20424;-66
2022/12/12 01:41:31;;;;;;;25.48;16.98;;;5.90;99.40;;;;;;5031465;28;20182;-66
2022/12/12 01:44:00;;;;;;;27.85;16.40;;;5.90;99.10;;;;;;5031794;28;20198;-74
2022/12/12 01:46:42;;;;;;;27.45;17.05;;;5.90;98.90;;;;;;5036287;28;20209;-66
2022/12/12 01:49:17;;;;;;;24.38;15.60;;;5.90;98.80;;;;;;5035369;28;20171;-66
2022/12/12 01:51:43;;;;;;;20.15;15.40;;;5.90;98.90;;;;;;5030150;28;20179;-66
2022/12/12 01:54:19;;;;;;;22.58;15.77;;;6.00;99.20;;;;;;5033053;28;20206;-66
2022/12/12 01:56:48;;;;;;;23.55;15.90;;;5.90;99.20;;;;;;5035151;28;20163;-66
2022/12/12 01:59:17;;;;;;;25.05;16.80;;;5.90;99.70;;;;;;5035260;28;20177;-66
2022/12/12 02:01:44;;;;;;;24.45;16.63;;;5.90;99.80;;;;;;5035135;28;20178;-66
2022/12/12 02:04:11;;;;;;;25.90;15.73;;;5.90;99.20;;;;;;5033870;28;20638;-66
2022/12/12 02:06:37;;;;;;;24.58;16.08;;;5.90;99.10;;;;;;5035974;28;20232;-66
2022/12/12 02:09:08;;;;;;;24.52;15.90;;;5.90;99.30;;;;;;5034204;28;20186;-66
2022/12/12 02:11:40;;;;;;;23.75;15.75;;;5.90;99.10;;;;;;5035845;28;20167;-66
2022/12/12 02:14:06;;;;;;;23.23;14.93;;;5.90;99.20;;;;;;5031233;28;20202;-66
2022/12/12 02:16:40;;;;;;;27.37;15.73;;;5.90;99.30;;;;;;5035711;28;20186;-67
2022/12/12 02:19:19;;;;;;;24.05;16.52;;;5.90;99.60;;;;;;5034866;28;20166;-66
2022/12/12 02:22:20;;;;;;;24.15;17.10;;;5.90;99.90;;;;;;5035282;28;20519;-65
2022/12/12 02:25:07;;;;;;;24.90;16.35;;;5.90;99.90;;;;;;5034722;28;20623;-66
2022/12/12 02:27:55;;;;;;;24.58;15.65;;;5.90;99.90;;;;;;5015804;28;20234;-66
2022/12/12 02:30:23;;;;;;;25.38;15.60;;;5.90;99.90;;;;;;5014828;28;20181;-66
2022/12/12 02:33:05;;;;;;;23.98;16.00;;;5.90;99.90;;;;;;5015520;28;20219;-66
2022/12/12 02:35:41;;;;;;;21.20;15.35;;;5.90;99.90;;;;;;5032775;28;20183;-66
2022/12/12 02:38:39;;;;;;;23.80;16.38;;;5.90;99.90;;;;;;5033839;28;20183;-66
2022/12/12 02:41:11;;;;;;;20.65;15.18;;;5.80;99.90;;;;;;5034466;28;20178;-66
2022/12/12 02:44:04;;;;;;;25.75;16.35;;;5.80;99.90;;;;;;5035289;28;20163;-66
2022/12/12 02:46:44;;;;;;;25.42;16.95;;;5.80;99.90;;;;;;5034352;28;20222;-66
2022/12/12 02:49:20;;;;;;;21.77;15.52;;;5.80;99.90;;;;;;5034304;28;20577;-66
2022/12/12 02:51:47;;;;;;;24.75;17.08;;;5.80;99.90;;;;;;5033334;28;20181;-66
2022/12/12 02:54:16;;;;;;;26.52;16.60;;;5.80;99.90;;;;;;5034103;28;20217;-65
2022/12/12 02:56:44;;;;;;;25.45;16.27;;;5.80;99.90;;;;;;5034779;28;20232;-66
2022/12/12 02:59:15;;;;;;;23.42;16.52;;;5.70;99.90;;;;;;5033022;28;20253;-66
2022/12/12 03:02:19;;;;;;;25.15;16.95;;;5.80;99.90;;;;;;5034975;28;20174;-66
2022/12/12 03:08:06;;;;;;;24.52;17.05;;;5.80;99.90;;;;;;5033379;28;20286;-65
2022/12/12 03:10:57;;;;;;;23.77;16.20;;;5.80;99.90;;;;;;5034844;28;20176;-66
2022/12/12 03:13:44;;;;;;;25.38;16.05;;;5.80;99.90;;;;;;5032838;28;20260;-66
2022/12/12 03:16:35;;;;;;;22.40;15.63;;;5.80;99.90;;;;;;5029139;28;20631;-73
2022/12/12 03:19:27;;;;;;;25.52;16.73;;;5.80;99.90;;;;;;5014613;28;20167;-74
2022/12/12 03:21:56;;;;;;;24.45;14.15;;;5.80;99.90;;;;;;5013969;28;20195;-66
2022/12/12 03:24:29;;;;;;;24.00;15.75;;;5.80;99.90;;;;;;5013672;28;20619;-66
2022/12/12 03:27:06;;;;;;;22.42;15.00;;;5.80;99.90;;;;;;5014658;28;20523;-65
2022/12/12 03:29:41;;;;;;;26.33;16.23;;;5.80;99.90;;;;;;5014721;28;20268;-66
2022/12/12 03:32:11;;;;;;;24.67;16.38;;;5.80;99.90;;;;;;5013718;28;20639;-66
2022/12/12 03:34:51;;;;;;;24.80;17.10;;;5.80;99.90;;;;;;5014421;28;20172;-66
2022/12/12 03:37:26;;;;;;;24.02;16.08;;;5.80;99.80;;;;;;5013553;28;20175;-72
2022/12/12 03:40:00;;;;;;;22.58;15.68;;;5.80;99.90;;;;;;5014444;28;20171;-66
2022/12/12 03:42:32;;;;;;;30.05;16.65;;;5.90;99.90;;;;;;5020455;28;20620;-66
2022/12/12 03:45:12;;;;;;;25.08;18.02;;;5.90;99.90;;;;;;5033458;28;20541;-66
2022/12/12 03:48:02;;;;;;;22.00;14.95;;;5.80;99.90;;;;;;5033087;28;20163;-66
2022/12/12 03:50:33;;;;;;;25.45;15.63;;;5.80;99.90;;;;;;5033272;28;20269;-65
2022/12/12 03:53:42;;;;;;;20.02;14.63;;;5.80;99.90;;;;;;5032985;28;20207;-65
2022/12/12 03:56:24;;;;;;;30.83;17.17;;;5.80;99.90;;;;;;5021791;28;20194;-66
2022/12/12 03:59:03;;;;;;;29.27;16.75;;;5.80;99.90;;;;;;5033811;28;20253;-66
2022/12/12 04:01:45;;;;;;;22.83;15.27;;;5.80;99.90;;;;;;5031488;28;20185;-66
2022/12/12 04:04:19;;;;;;;22.35;15.55;;;5.80;99.90;;;;;;5032933;28;20225;-66
2022/12/12 04:06:51;;;;;;;24.52;15.80;;;5.80;99.90;;;;;;5032371;28;20186;-66
2022/12/12 04:15:40;;;;;;;24.08;16.10;;;5.80;99.90;;;;;;5032904;28;20185;-66
2022/12/12 04:18:37;;;;;;;27.48;16.58;;;5.80;99.90;;;;;;5032891;28;20570;-75
2022/12/12 04:24:47;;;;;;;25.35;16.80;;;5.80;99.90;;;;;;5032582;28;20185;-66
2022/12/12 04:27:21;;;;;;;25.67;16.38;;;5.70;99.90;;;;;;5024219;28;20654;-66
2022/12/12 04:29:53;;;;;;;25.40;17.23;;;5.70;99.90;;;;;;5033241;28;20162;-66
2022/12/12 04:32:47;;;;;;;27.08;16.75;;;5.70;99.90;;;;;;5032437;28;20603;-66
2022/12/12 04:35:32;;;;;;;24.80;16.67;;;5.70;99.90;;;;;;5025240;28;20229;-66
2022/12/12 04:38:02;;;;;;;27.85;17.52;;;5.80;99.90;;;;;;5032433;28;20257;-66
2022/12/12 04:40:37;;;;;;;25.90;18.95;;;5.80;99.90;;;;;;5032286;28;20198;-66
2022/12/12 04:43:07;;;;;;;25.30;18.38;;;5.80;99.90;;;;;;5031521;28;20266;-66
2022/12/12 04:45:37;;;;;;;27.05;15.35;;;5.80;99.90;;;;;;5032740;28;20232;-66
2022/12/12 04:48:06;;;;;;;25.00;16.25;;;5.80;99.90;;;;;;5032867;28;20174;-66
2022/12/12 04:50:34;;;;;;;22.90;17.30;;;5.90;99.90;;;;;;5028049;28;20266;-66
2022/12/12 04:53:03;;;;;;;23.63;15.73;;;5.90;99.90;;;;;;5012996;28;20250;-66
2022/12/12 04:55:33;;;;;;;24.23;16.23;;;5.80;99.90;;;;;;5015728;28;20250;-66
2022/12/12 04:57:59;;;;;;;27.75;16.55;;;5.90;99.90;;;;;;5033007;28;20500;-65
2022/12/12 05:00:30;;;;;;;26.80;16.40;;;5.80;99.90;;;;;;5030686;28;20529;-66
2022/12/12 05:03:02;;;;;;;26.50;17.15;;;5.70;99.90;;;;;;5032722;28;20173;-66
2022/12/12 05:05:52;;;;;;;26.75;17.60;;;5.70;99.90;;;;;;5028185;28;20179;-66
2022/12/12 05:08:29;;;;;;;25.05;15.30;;;5.80;99.90;;;;;;5027411;28;20186;-66
2022/12/12 05:10:58;;;;;;;27.20;15.80;;;5.70;99.90;;;;;;5028171;28;20227;-66
2022/12/12 05:13:32;;;;;;;28.38;17.48;;;5.70;99.90;;;;;;5017140;28;20559;-66
2022/12/12 05:16:00;;;;;;;22.92;15.50;;;5.80;99.90;;;;;;5012851;28;20172;-66
2022/12/12 05:18:26;;;;;;;23.15;16.13;;;5.80;99.90;;;;;;5011479;28;20179;-66
2022/12/12 05:20:52;;;;;;;20.03;14.77;;;5.80;99.90;;;;;;5026645;28;20182;-66
2022/12/12 05:23:18;;;;;;;23.50;14.70;;;5.80;99.90;;;;;;5031140;28;20966;-66
2022/12/12 05:25:44;;;;;;;22.17;15.30;;;5.80;99.90;;;;;;5031364;28;20437;-66
2022/12/12 05:28:10;;;;;;;23.47;16.03;;;5.90;99.90;;;;;;5031174;28;20832;-74
2022/12/12 05:30:35;;;;;;;26.53;16.37;;;5.80;99.90;;;;;;5031833;28;20514;-66
2022/12/12 05:33:01;;;;;;;25.40;16.20;;;5.80;99.90;;;;;;5031428;28;20688;-66
2022/12/12 05:35:27;;;;;;;25.30;16.10;;;5.80;99.90;;;;;;5031395;28;20256;-66
2022/12/12 05:37:52;;;;;;;23.40;17.10;;;5.80;99.90;;;;;;5032285;28;20224;-66
2022/12/12 05:40:19;;;;;;;26.27;16.60;;;5.80;99.90;;;;;;5029997;28;20258;-66
2022/12/12 05:42:45;;;;;;;24.58;17.00;;;5.80;99.90;;;;;;5030902;28;20186;-66
2022/12/12 05:45:11;;;;;;;27.20;17.13;;;5.80;99.90;;;;;;5030171;28;20186;-72
2022/12/12 05:47:36;;;;;;;22.50;16.53;;;5.80;99.90;;;;;;5031007;28;20434;-66
2022/12/12 05:50:03;;;;;;;20.17;15.67;;;5.80;99.90;;;;;;5031865;28;20272;-66
2022/12/12 05:52:29;;;;;;;25.50;16.42;;;5.80;99.90;;;;;;5031304;28;20210;-66
2022/12/12 05:54:55;;;;;;;21.50;15.10;;;5.70;99.90;;;;;;5031958;28;20175;-66
2022/12/12 05:57:20;;;;;;;23.17;16.37;;;5.80;99.90;;;;;;5031103;28;20452;-66
2022/12/12 05:59:47;;;;;;;24.27;16.23;;;5.70;99.90;;;;;;5031936;28;20171;-66
2022/12/12 06:02:14;;;;;;;22.23;15.55;;;5.70;99.90;;;;;;5029566;28;20217;-68
2022/12/12 06:04:39;;;;;;;22.33;14.98;;;5.70;99.90;;;;;;5032212;28;20659;-66
2022/12/12 06:07:05;;;;;;;27.53;16.73;;;5.60;99.90;;;;;;5031430;28;20181;-66
2022/12/12 06:09:31;;;;;;;23.70;15.60;;;5.60;99.90;;;;;;5031215;28;20399;-66
2022/12/12 06:11:59;;;;;;;21.17;14.70;;;5.60;99.90;;;;;;5026994;28;20182;-66
2022/12/12 06:14:25;;;;;;;21.95;15.48;;;5.60;99.90;;;;;;5030070;28;20242;-66
2022/12/12 06:16:51;;;;;;;22.23;15.20;;;5.60;99.90;;;;;;5031840;28;20213;-66
2022/12/12 06:19:18;;;;;;;30.00;17.27;;;5.60;99.90;;;;;;5030198;28;20576;-66
2022/12/12 06:21:44;;;;;;;22.25;16.65;;;5.60;99.90;;;;;;5030934;28;20514;-66
2022/12/12 06:24:10;;;;;;;22.63;14.68;;;5.60;99.90;;;;;;5031818;28;20200;-66
2022/12/12 06:26:36;;;;;;;23.75;15.80;;;5.60;99.90;;;;;;5030700;28;20929;-66
2022/12/12 06:29:02;;;;;;;23.70;16.60;;;5.50;99.90;;;;;;5031695;28;20209;-66
2022/12/12 06:31:28;;;;;;;24.63;16.27;;;5.50;99.90;;;;;;5030321;28;20198;-66
2022/12/12 06:33:53;;;;;;;27.70;17.60;;;5.60;99.90;;;;;;5034534;28;20950;-71
2022/12/12 06:36:24;;;;;;;22.87;15.80;;;5.50;99.90;;;;;;5033779;28;20195;-66
2022/12/12 06:38:56;;;;;;;24.40;18.70;;;5.40;99.90;;;;;;5035618;28;20163;-66
2022/12/12 06:41:23;;;;;;;24.30;15.90;;;5.40;99.90;;;;;;5030723;28;20553;-71
2022/12/12 06:43:49;;;;;;;24.10;15.98;;;5.40;99.90;;;;;;5031112;28;20532;-66
2022/12/12 06:46:24;;;;;;;24.13;17.03;;;5.30;99.90;;;;;;5031773;28;20187;-73
2022/12/12 06:48:50;;;;;;;24.60;17.08;;;5.30;99.90;;;;;;5035136;28;20397;-66
2022/12/12 06:51:20;;;;;;;21.80;17.60;;;5.30;99.90;;;;;;5034229;28;20274;-73
2022/12/12 06:53:47;;;;;;;22.60;16.90;;;5.30;99.90;;;;;;5034245;28;20214;-66
2022/12/12 06:56:15;;;;;;;21.80;15.20;;;5.30;99.90;;;;;;5034705;28;20543;-66
2022/12/12 06:58:41;;;;;;;21.00;16.52;;;5.20;99.90;;;;;;5034922;28;20178;-66
2022/12/12 07:01:09;;;;;;;24.67;18.47;;;5.20;99.90;;;;;;5027575;28;20191;-66
2022/12/12 07:03:35;;;;;;;23.75;15.15;;;5.20;99.90;;;;;;5033874;28;20443;-66
2022/12/12 07:06:00;;;;;;;23.63;15.80;;;5.10;99.90;;;;;;5034314;28;20225;-72
2022/12/12 07:08:27;;;;;;;23.37;16.63;;;5.10;99.90;;;;;;5033935;28;20187;-67
2022/12/12 07:10:54;;;;;;;23.27;16.70;;;5.10;99.90;;;;;;5032843;28;20649;-66
2022/12/12 07:13:20;;;;;;;22.60;18.40;;;5.10;99.90;;;;;;5028439;28;20614;-72
2022/12/12 07:15:48;;;;;;;26.40;17.30;;;5.20;99.90;;;;;;5031949;28;20183;-67
2022/12/12 07:18:15;;;;;;;22.20;16.00;;;5.20;99.90;;;;;;5032381;28;20183;-66
2022/12/12 07:20:43;;;;;;;24.77;19.73;;;5.20;99.90;;;;;;5034545;28;20534;-66
2022/12/12 07:23:09;;;;;;;21.58;15.73;;;5.20;99.90;;;;;;5034778;28;20229;-66
2022/12/12 07:25:39;;;;;;;21.20;15.00;;;5.10;99.90;;;;;;5033975;28;20761;-66
2022/12/12 07:28:09;;;;;;;23.90;17.20;;;5.10;99.90;;;;;;5033934;28;20662;-66
2022/12/12 07:30:38;;;;;;;22.58;16.15;;;5.10;99.90;;;;;;5033313;28;20261;-66
2022/12/12 07:33:04;;;;;;;21.83;15.63;;;5.10;99.90;;;;;;5030399;28;20225;-66
2022/12/12 07:35:29;;;;;;;22.07;15.53;;;5.00;99.90;;;;;;5031720;28;20213;-66
2022/12/12 07:37:55;;;;;;;24.27;17.83;;;5.10;99.90;;;;;;5039014;28;20390;-66
2022/12/12 07:40:22;;;;;;;22.60;15.27;;;5.00;99.90;;;;;;5049692;28;20314;-67
2022/12/12 07:42:48;;;;;;;23.80;16.80;;;5.00;99.90;;;;;;5030873;28;20211;-66
2022/12/12 07:45:14;;;;;;;25.73;15.47;;;5.00;99.90;;;;;;5030089;28;20904;-66
2022/12/12 07:47:39;;;;;;;24.03;15.73;;;5.00;99.90;;;;;;5032456;28;20190;-66
2022/12/12 07:50:06;;;;;;;23.60;16.23;;;4.90;99.90;;;;;;5032405;28;20434;-67
2022/12/12 07:52:31;;;;;;;22.60;14.35;;;4.90;99.90;;;;;;5031591;28;20219;-66
2022/12/12 07:54:57;;;;;;;27.17;18.07;;;4.90;99.90;;;;;;5033925;28;20174;-66
2022/12/12 07:57:23;;;;;;;25.23;17.73;;;4.90;99.90;;;;;;5040940;28;20251;-67
2022/12/12 07:59:48;;;;;;;26.17;15.80;;;4.80;99.90;;;;;;5036767;28;20207;-67
2022/12/12 08:02:14;;;;;;;26.07;16.10;;;4.80;99.90;;;;;;5030940;28;20301;-66
2022/12/12 08:04:40;;;;;;;24.10;17.20;;;4.80;99.90;;;;;;5033521;28;20203;-66
2022/12/12 08:07:05;;;;;;;28.87;16.67;;;4.80;99.90;;;;;;5033903;28;20178;-66
2022/12/12 08:09:31;;;;;;;23.43;14.97;;;4.80;99.90;;;;;;5033396;28;20179;-66
2022/12/12 08:11:58;;;;;;;23.87;18.33;;;4.80;99.90;;;;;;5030653;28;20179;-66
2022/12/12 08:14:26;;;;;;;25.48;17.63;;;4.80;99.90;;;;;;5032810;28;20209;-66
2022/12/12 08:16:52;;;;;;;25.75;17.55;;;4.70;99.90;;;;;;5027022;28;20179;-72
2022/12/12 08:19:19;;;;;;;26.93;17.90;;;4.80;99.90;;;;;;5033950;28;20174;-82
2022/12/12 08:21:45;;;;;;;24.63;17.95;;;4.80;99.90;;;;;;5033676;28;20395;-66
2022/12/12 08:24:12;;;;;;;27.30;18.38;;;4.80;99.90;;;;;;5032262;28;20190;-66
2022/12/12 08:26:38;;;;;;;28.63;16.90;;;4.70;99.90;;;;;;5032911;28;20181;-66
2022/12/12 08:29:04;;;;;;;24.70;16.90;;;4.80;99.90;;;;;;5033680;28;20269;-66
2022/12/12 08:31:30;;;;;;;26.30;19.10;;;4.80;99.90;;;;;;5032960;28;20193;-66
2022/12/12 08:33:57;;;;;;;26.93;18.17;;;4.80;99.90;;;;;;5035144;28;20210;-66
2022/12/12 08:36:28;;;;;;;27.67;18.80;;;4.80;99.90;;;;;;5032356;28;20205;-66
2022/12/12 08:38:54;;;;;;;31.67;17.67;;;4.80;99.90;;;;;;5033602;28;20159;-66
2022/12/12 08:41:20;;;;;;;27.63;19.00;;;4.80;99.90;;;;;;5032490;28;20266;-80
2022/12/12 08:43:46;;;;;;;31.23;20.70;;;4.80;99.90;;;;;;5032727;28;20490;-67
2022/12/12 08:46:13;;;;;;;30.77;20.93;;;4.90;99.90;;;;;;5033657;28;20647;-66
2022/12/12 08:48:39;;;;;;;27.88;19.60;;;4.90;99.90;;;;;;5031332;28;20418;-66
2022/12/12 08:51:05;;;;;;;33.83;19.57;;;4.90;99.90;;;;;;5031302;28;20178;-66
2022/12/12 08:53:31;;;;;;;27.73;19.30;;;5.00;99.90;;;;;;5031795;28;20226;-66
2022/12/12 08:55:57;;;;;;;28.63;19.37;;;4.90;99.90;;;;;;5033114;28;20392;-65
2022/12/12 08:58:22;;;;;;;33.22;19.67;;;5.00;99.90;;;;;;5030625;28;20190;-71
2022/12/12 09:00:48;;;;;;;32.77;18.43;;;5.00;99.90;;;;;;5033098;28;20530;-66
2022/12/12 09:03:16;;;;;;;31.23;18.55;;;5.00;99.90;;;;;;5032797;28;20190;-66
2022/12/12 09:05:45;;;;;;;28.85;18.23;;;5.00;99.90;;;;;;5032406;28;20228;-66
2022/12/12 09:08:12;;;;;;;30.35;20.00;;;5.10;99.90;;;;;;5031175;28;20511;-66
2022/12/12 09:10:40;;;;;;;25.63;17.33;;;5.40;99.90;;;;;;5032057;28;20641;-68
2022/12/12 09:13:06;;;;;;;28.57;18.37;;;5.90;99.90;;;;;;5032035;28;20219;-68
2022/12/12 09:15:36;;;;;;;27.97;20.20;;;6.50;99.90;;;;;;5032390;28;20406;-68
2022/12/12 09:18:02;;;;;;;29.47;18.43;;;7.00;99.90;;;;;;5032652;28;20420;-68
2022/12/12 09:20:28;;;;;;;25.60;18.40;;;7.60;97.90;;;;;;5030633;28;20425;-66
2022/12/12 09:22:54;;;;;;;25.00;19.40;;;7.90;96.30;;;;;;5032072;28;20477;-68
2022/12/12 09:25:23;;;;;;;29.53;19.43;;;8.00;94.70;;;;;;5032562;28;20190;-66
2022/12/12 09:27:50;;;;;;;36.23;20.60;;;7.90;94.30;;;;;;5031589;28;20460;-67
2022/12/12 09:30:15;;;;;;;27.13;20.93;;;7.60;94.70;;;;;;5032610;28;20452;-66
2022/12/12 09:32:43;;;;;;;31.87;20.70;;;7.30;95.00;;;;;;5031725;28;20850;-67
2022/12/12 09:35:10;;;;;;;25.67;18.37;;;7.10;95.70;;;;;;5032661;28;20424;-66
2022/12/12 09:37:36;;;;;;;33.37;21.23;;;6.80;96.40;;;;;;5032173;28;20749;-68
2022/12/12 09:40:03;;;;;;;29.97;19.80;;;6.70;97.50;;;;;;5032640;28;20418;-68
2022/12/12 09:42:31;;;;;;;29.87;21.90;;;6.50;98.10;;;;;;5032137;28;20421;-68
2022/12/12 09:45:04;;;;;;;26.83;21.87;;;6.40;98.70;;;;;;5032402;28;20821;-68
2022/12/12 09:47:44;;;;;;;27.25;21.17;;;6.30;99.50;;;;;;5032070;28;20468;-68
2022/12/12 09:50:24;;;;;;;33.80;21.00;;;6.30;99.80;;;;;;5031261;28;20191;-68
2022/12/12 09:52:51;;;;;;;39.10;21.73;;;6.20;99.90;;;;;;5030645;28;20461;-69
2022/12/12 09:55:20;;;;;;;34.17;21.57;;;6.30;99.90;;;;;;5032068;28;20401;-69
2022/12/12 09:58:01;;;;;;;30.17;21.10;;;6.70;99.90;;;;;;5031950;28;20421;-68
2022/12/12 10:00:31;;;;;;;34.00;24.30;;;7.40;98.80;;;;;;5031614;28;20414;-69
2022/12/12 10:03:22;;;;;;;30.20;20.80;;;8.50;96.20;;;;;;5028114;28;22283;-69
2022/12/12 10:06:06;;;;;;;28.53;21.57;;;9.70;92.60;;;;;;5016117;28;20531;-69
2022/12/12 10:09:33;;;;;;;29.57;20.10;;;10.70;88.70;;;;;;5035411;28;20471;-69
2022/12/12 10:12:01;;;;;;;25.17;21.20;;;11.70;80.80;;;;;;5002677;28;20437;-69
2022/12/12 10:14:35;;;;;;;25.60;20.33;;;12.50;75.70;;;;;;5035582;28;20551;-70
2022/12/12 10:17:05;;;;;;;30.93;22.40;;;13.20;72.60;;;;;;5035530;28;20524;-69
2022/12/12 10:19:37;;;;;;;25.23;20.37;;;13.60;69.20;;;;;;5033580;28;20440;-69
2022/12/12 10:22:11;;;;;;;24.80;19.50;;;13.70;66.60;;;;;;5034056;28;20474;-69
2022/12/12 10:24:56;;;;;;;24.33;20.50;;;14.10;65.40;;;;;;5034517;28;20480;-69
2022/12/12 10:27:23;;;;;;;23.03;19.60;;;14.20;63.90;;;;;;5034914;28;20838;-68
2022/12/12 10:29:49;;;;;;;26.30;20.07;;;14.50;62.80;;;;;;5033152;28;20474;-72
2022/12/12 10:32:33;;;;;;;22.40;18.53;;;14.30;61.00;;;;;;5035629;28;20425;-69
2022/12/12 10:35:02;;;;;;;23.50;19.30;;;14.30;61.10;;;;;;5033461;28;20705;-69
2022/12/12 10:37:45;;;;;;;26.33;19.20;;;14.10;60.20;;;;;;5034375;28;20488;-83
2022/12/12 10:40:32;;;;;;;22.87;20.40;;;14.10;60.90;;;;;;5040826;28;20432;-69
2022/12/12 10:43:11;;;;;;;22.07;17.43;;;13.90;61.10;;;;;;5038973;28;20447;-69
2022/12/12 10:45:56;;;;;;;19.83;17.77;;;13.80;60.00;;;;;;5033737;28;20433;-69
2022/12/12 10:48:21;;;;;;;21.50;18.50;;;13.80;59.60;;;;;;5035273;28;20436;-69
2022/12/12 10:50:54;;;;;;;20.47;15.90;;;13.80;60.40;;;;;;5032239;28;20968;-67
2022/12/12 10:53:21;;;;;;;24.80;17.07;;;13.50;60.30;;;;;;5033430;28;20256;-72
2022/12/12 10:55:53;;;;;;;24.20;20.63;;;13.40;60.70;;;;;;5034950;28;20411;-72
2022/12/12 10:58:27;;;;;;;23.10;19.10;;;13.00;61.70;;;;;;5032381;28;20436;-69
2022/12/12 11:01:01;;;;;;;22.20;19.10;;;12.70;63.50;;;;;;5034328;28;20483;-69
2022/12/12 11:03:44;;;;;;;23.57;16.90;;;12.30;64.40;;;;;;5035322;28;20409;-69
2022/12/12 11:06:37;;;;;;;18.80;16.40;;;12.10;64.90;;;;;;5034595;28;20437;-69
2022/12/12 11:09:17;;;;;;;22.50;19.20;;;11.90;67.00;;;;;;5033831;28;20436;-69
2022/12/12 11:12:09;;;;;;;22.97;16.90;;;11.80;67.00;;;;;;5033394;28;20478;-69
2022/12/12 11:14:36;;;;;;;24.37;18.20;;;11.60;67.70;;;;;;5034234;28;20473;-69
2022/12/12 11:17:17;;;;;;;20.37;16.93;;;11.60;68.60;;;;;;5033195;28;20472;-69
2022/12/12 11:19:45;;;;;;;23.90;16.70;;;11.60;68.30;;;;;;5033536;28;20838;-69
2022/12/12 11:22:12;;;;;;;25.47;20.03;;;11.40;68.30;;;;;;5033720;28;20960;-69
2022/12/12 11:24:44;;;;;;;21.10;17.60;;;11.40;70.60;;;;;;5035742;28;20420;-70
2022/12/12 11:27:19;;;;;;;20.30;16.47;;;11.10;71.80;;;;;;5043353;28;20429;-68
2022/12/12 11:29:48;;;;;;;19.70;17.23;;;11.20;70.80;;;;;;5033424;28;20442;-69
2022/12/12 11:32:21;;;;;;;24.07;16.43;;;11.30;69.50;;;;;;5036793;28;20481;-69
2022/12/12 11:34:58;;;;;;;20.07;16.20;;;11.30;69.60;;;;;;5029383;28;20949;-69
2022/12/12 11:37:30;;;;;;;20.47;18.33;;;11.20;69.60;;;;;;5033512;28;20409;-69
2022/12/12 11:39:56;;;;;;;21.50;16.20;;;11.10;69.70;;;;;;5034866;28;20416;-69
2022/12/12 11:42:30;;;;;;;22.03;16.30;;;11.30;70.80;;;;;;5034003;28;20790;-69
2022/12/12 11:45:03;;;;;;;20.17;17.50;;;11.40;68.70;;;;;;5034471;28;20425;-69
2022/12/12 11:47:37;;;;;;;20.83;16.33;;;11.30;70.50;;;;;;5048489;28;20912;-69
2022/12/12 11:50:28;;;;;;;21.80;16.10;;;11.40;70.50;;;;;;5034306;28;20433;-69
2022/12/12 11:52:57;;;;;;;22.87;17.20;;;11.40;68.50;;;;;;5014116;28;20476;-68
2022/12/12 11:55:35;;;;;;;22.53;18.07;;;11.30;67.40;;;;;;5030641;28;20439;-68
2022/12/12 11:58:20;;;;;;;22.63;17.00;;;11.10;67.40;;;;;;5033987;28;20447;-68
2022/12/12 12:01:04;;;;;;;21.23;16.83;;;10.80;67.20;;;;;;5039109;28;20415;-68
2022/12/12 12:03:56;;;;;;;20.17;16.50;;;10.60;69.40;;;;;;5028909;28;20435;-69
2022/12/12 12:06:31;;;;;;;21.00;16.07;;;10.50;71.00;;;;;;5011846;28;20836;-71
2022/12/12 12:09:19;;;;;;;21.70;16.33;;;10.40;71.20;;;;;;5044576;28;20415;-70
2022/12/12 12:12:01;;;;;;;22.37;16.93;;;10.30;71.50;;;;;;5032214;28;20431;-69
2022/12/12 12:14:54;;;;;;;23.87;17.60;;;10.30;73.20;;;;;;5047937;28;20465;-69
2022/12/12 12:17:48;;;;;;;20.63;15.67;;;10.40;72.30;;;;;;5030524;28;20535;-69
2022/12/12 12:20:41;;;;;;;19.53;15.53;;;10.40;74.50;;;;;;5032144;28;20449;-69
2022/12/12 12:23:15;;;;;;;20.27;15.53;;;10.40;75.50;;;;;;5032834;28;20483;-72
2022/12/12 12:26:00;;;;;;;20.93;16.33;;;10.50;75.60;;;;;;5043376;28;20447;-74
2022/12/12 12:29:00;;;;;;;23.70;18.05;;;10.60;80.60;;;;;;5029842;28;20464;-67
2022/12/12 12:32:04;;;;;;;22.20;16.47;;;11.00;74.30;;;;;;5029599;28;20190;-67
2022/12/12 12:34:46;;;;;;;20.53;14.90;;;11.10;72.70;;;;;;5028244;28;21047;-67
2022/12/12 12:37:17;;;;;;;19.97;16.23;;;11.10;71.80;;;;;;5041857;28;20417;-68
2022/12/12 12:40:13;;;;;;;20.33;15.70;;;10.80;69.70;;;;;;5041767;28;20449;-68
2022/12/12 12:43:14;;;;;;;18.87;15.20;;;10.70;70.00;;;;;;5036245;28;20848;-67
2022/12/12 12:45:48;;;;;;;20.50;14.93;;;10.50;72.10;;;;;;5031450;28;20428;-68
2022/12/12 12:48:23;;;;;;;19.40;15.10;;;10.40;71.80;;;;;;5030733;28;20518;-66
2022/12/12 12:50:55;;;;;;;19.67;15.10;;;10.20;72.40;;;;;;5031917;28;20444;-66
2022/12/12 12:53:41;;;;;;;20.73;14.97;;;10.10;72.10;;;;;;5033236;28;20461;-66
2022/12/12 12:56:23;;;;;;;19.23;15.50;;;10.00;72.50;;;;;;5031812;28;20933;-66
2022/12/12 12:58:51;;;;;;;17.37;14.10;;;9.80;72.70;;;;;;5030622;28;20447;-66
2022/12/12 13:01:37;;;;;;;16.30;12.40;;;9.70;73.00;;;;;;5030285;28;20430;-67
2022/12/12 13:04:09;;;;;;;17.17;12.73;;;9.60;73.00;;;;;;5035478;28;20416;-67
2022/12/12 13:06:34;;;;;;;18.53;13.77;;;9.50;72.60;;;;;;5031704;28;20930;-68
2022/12/12 13:09:11;;;;;;;16.33;12.83;;;9.40;73.40;;;;;;5030657;28;20503;-67
2022/12/12 13:11:43;;;;;;;19.13;13.53;;;9.30;73.30;;;;;;5031498;28;20183;-67
2022/12/12 13:14:20;;;;;;;17.03;13.57;;;9.30;73.90;;;;;;5032839;28;20796;-68